Christina G — ZCXO5 — position and weather

sailwx.info

Track history (hours):
 
Tides and Currents Weather Stations Pressure Air Temp Water Temp Dewpoint Dewpoint Depression Visibility Wind Speed Wind Dir Waves Ship Positions

Christina G

Last reported at 2017-Aug-22 11:00 UTC. Time now 2017-Aug-22 11:15 UTC.
Position N 39°21' E 002°58'.

Length 33 m; draft 2.5 m.

MMSI: 319032100.

Date/timePositionNaut miles runAvg speedWind from/ knotsBaromVisibWave heightAir tempDewpointWater temp
2017-Aug-22 11:00N 39°21' E 002°58'0 0.0
2017-Aug-22 10:30N 39°21' E 002°58'0 0.0
2017-Aug-22 10:00N 39°21' E 002°58'0 0.0
2017-Aug-22 09:30N 39°21' E 002°58'0 0.0
2017-Aug-22 09:00N 39°21' E 002°58'0 0.0
2017-Aug-22 08:30N 39°21' E 002°58'0 0.0
2017-Aug-22 08:00N 39°21' E 002°58'0 0.0
2017-Aug-22 07:30N 39°21' E 002°58'0 0.0
2017-Aug-22 07:00N 39°21' E 002°58'0 0.0
2017-Aug-22 06:30N 39°21' E 002°58'0 0.0
2017-Aug-22 06:00N 39°21' E 002°58'0 0.0
2017-Aug-22 05:30N 39°21' E 002°58'0 0.0
2017-Aug-22 05:00N 39°21' E 002°58'0 0.0
2017-Aug-22 04:30N 39°21' E 002°58'0 0.0
2017-Aug-22 04:00N 39°21' E 002°58'0 0.0
2017-Aug-22 03:30N 39°21' E 002°58'0 0.0
2017-Aug-22 03:00N 39°21' E 002°58'0 0.0
2017-Aug-22 02:30N 39°21' E 002°58'0 0.0
2017-Aug-22 02:00N 39°21' E 002°58'0 0.0
2017-Aug-22 01:30N 39°21' E 002°58'0 0.0
2017-Aug-22 01:00N 39°21' E 002°58'0 0.0
2017-Aug-22 00:30N 39°21' E 002°58'0 0.0
2017-Aug-22 00:00N 39°21' E 002°58'0 0.0
2017-Aug-21 23:30N 39°21' E 002°58'0 0.0
2017-Aug-21 23:00N 39°21' E 002°58'0 0.0
2017-Aug-21 22:30N 39°21' E 002°58'0 0.0
2017-Aug-21 22:00N 39°21' E 002°58'0 0.0
2017-Aug-21 21:30N 39°21' E 002°58'0 0.1
2017-Aug-21 21:00N 39°21' E 002°58'0 0.0
2017-Aug-21 20:30N 39°21' E 002°58'0 0.1
2017-Aug-21 20:00N 39°21' E 002°58'5 9.3
2017-Aug-21 19:30N 39°21' E 002°52'510.4
2017-Aug-21 19:00N 39°22' E 002°46'510.9
2017-Aug-21 18:30N 39°24' E 002°39'510.9
2017-Aug-21 18:00N 39°26' E 002°33'510.6
2017-Aug-21 17:30N 39°29' E 002°27'4 7.3
2017-Aug-21 17:00N 39°32' E 002°24'0 0.0
2017-Aug-21 16:30N 39°32' E 002°24'0 0.0
2017-Aug-21 16:00N 39°32' E 002°24'0 0.0
2017-Aug-21 15:25N 39°32' E 002°24'0 0.0
2017-Aug-21 14:58N 39°32' E 002°24'0 0.0
2017-Aug-21 14:30N 39°32' E 002°24'0 0.0
2017-Aug-21 14:00N 39°32' E 002°24'0 0.1
2017-Aug-21 13:30N 39°32' E 002°24'5 0.3
2017-Aug-20 18:36N 39°37' E 002°22'8 9.9
2017-Aug-20 17:49N 39°42' E 002°30'4 9.9
2017-Aug-20 17:24N 39°44' E 002°35'2 6.0
2017-Aug-20 17:00N 39°45' E 002°37'0 0.0
2017-Aug-20 16:21N 39°45' E 002°37'0 0.0
2017-Aug-20 15:41N 39°45' E 002°37'0 0.1
2017-Aug-20 15:30N 39°45' E 002°37'0 0.0
2017-Aug-20 14:49N 39°45' E 002°37'0 0.0
2017-Aug-20 11:17N 39°45' E 002°37'2 7.2
2017-Aug-20 11:00N 39°47' E 002°39'2 2.2
2017-Aug-20 10:00N 39°48' E 002°42'0 0.0
2017-Aug-20 09:30N 39°48' E 002°42'0 0.0
2017-Aug-20 09:00N 39°48' E 002°42'0 0.0
2017-Aug-20 08:30N 39°48' E 002°42'0 0.0
2017-Aug-20 08:00N 39°48' E 002°42'0 0.0
2017-Aug-20 07:30N 39°48' E 002°42'0 0.0
2017-Aug-20 07:00N 39°48' E 002°42'0 0.0
2017-Aug-20 06:30N 39°48' E 002°42'0 0.0
2017-Aug-20 06:00N 39°48' E 002°42'0 0.0
2017-Aug-20 05:30N 39°48' E 002°42'0 0.0
2017-Aug-20 05:00N 39°48' E 002°42'0 0.0
2017-Aug-20 04:30N 39°48' E 002°42'0 0.0
2017-Aug-20 04:00N 39°48' E 002°42'0 0.0
2017-Aug-20 03:30N 39°48' E 002°42'0 0.0
2017-Aug-20 03:00N 39°48' E 002°42'0 0.0
2017-Aug-20 02:30N 39°48' E 002°42'0 0.0
2017-Aug-20 02:00N 39°48' E 002°42'0 0.0
2017-Aug-20 01:30N 39°48' E 002°42'0 0.0
2017-Aug-20 01:00N 39°48' E 002°42'0 0.0
2017-Aug-20 00:30N 39°48' E 002°42'0 0.0
2017-Aug-20 00:01N 39°48' E 002°42'0 0.0
2017-Aug-19 23:30N 39°48' E 002°42'0 0.0
2017-Aug-19 23:00N 39°48' E 002°42'0 0.0
2017-Aug-19 22:30N 39°48' E 002°42'0 0.0
2017-Aug-19 22:00N 39°48' E 002°42'0 0.0
2017-Aug-19 21:30N 39°48' E 002°42'0 0.0
2017-Aug-19 21:00N 39°48' E 002°42'0 0.0
2017-Aug-19 20:30N 39°48' E 002°42'0 0.0
2017-Aug-19 20:00N 39°48' E 002°42'0 0.0
2017-Aug-19 19:31N 39°48' E 002°42'0 0.0
2017-Aug-19 19:00N 39°48' E 002°42'0 0.0
2017-Aug-19 18:30N 39°48' E 002°42'0 0.0
2017-Aug-19 18:00N 39°48' E 002°42'0 0.0
2017-Aug-19 17:30N 39°48' E 002°42'0 0.0
2017-Aug-19 17:00N 39°48' E 002°42'0 0.0
2017-Aug-19 16:30N 39°48' E 002°42'0 0.0
2017-Aug-19 16:00N 39°48' E 002°42'0 0.0
2017-Aug-19 15:30N 39°48' E 002°42'0 0.0
2017-Aug-19 15:01N 39°48' E 002°42'0 0.0
2017-Aug-19 14:01N 39°48' E 002°42'0 0.0
2017-Aug-19 13:30N 39°48' E 002°42'0 0.0
2017-Aug-19 13:00N 39°48' E 002°42'0 0.0
2017-Aug-19 12:30N 39°48' E 002°42'0 0.0
2017-Aug-19 12:00N 39°48' E 002°42'0 0.0
2017-Aug-19 11:30N 39°48' E 002°42'0 0.0
2017-Aug-19 11:00N 39°48' E 002°42'0 0.0
2017-Aug-19 10:30N 39°48' E 002°42'0 0.0
2017-Aug-19 10:00N 39°48' E 002°42'0 0.0
2017-Aug-19 09:30N 39°48' E 002°42'0 0.0
2017-Aug-19 09:00N 39°48' E 002°42'0 0.0
2017-Aug-19 08:31N 39°48' E 002°42'0 0.0
2017-Aug-19 08:00N 39°48' E 002°42'0 0.0
2017-Aug-19 07:30N 39°48' E 002°42'0 0.0
2017-Aug-19 07:00N 39°48' E 002°42'0 0.0
2017-Aug-19 06:30N 39°48' E 002°42'0 0.0
2017-Aug-19 06:00N 39°48' E 002°42'0 0.0
2017-Aug-19 05:30N 39°48' E 002°42'0 0.0
2017-Aug-19 05:00N 39°48' E 002°42'0 0.0
2017-Aug-19 04:30N 39°48' E 002°42'0 0.0
2017-Aug-19 04:00N 39°48' E 002°42'0 0.0
2017-Aug-19 03:30N 39°48' E 002°42'0 0.0
2017-Aug-19 03:00N 39°48' E 002°42'0 0.0
2017-Aug-19 02:30N 39°48' E 002°42'0 0.0
2017-Aug-19 02:00N 39°48' E 002°42'0 0.0
2017-Aug-19 01:30N 39°48' E 002°42'0 0.0
2017-Aug-19 01:00N 39°48' E 002°42'0 0.0
2017-Aug-19 00:30N 39°48' E 002°42'0 0.0
2017-Aug-19 00:00N 39°48' E 002°42'0 0.0
2017-Aug-18 23:30N 39°48' E 002°42'0 0.0
2017-Aug-18 23:00N 39°48' E 002°42'0 0.0
2017-Aug-18 22:30N 39°48' E 002°42'0 0.0
2017-Aug-18 22:00N 39°48' E 002°42'0 0.0
2017-Aug-18 21:30N 39°48' E 002°42'0 0.0
2017-Aug-18 21:00N 39°48' E 002°42'0 0.0
2017-Aug-18 20:30N 39°48' E 002°42'0 0.0
2017-Aug-18 20:00N 39°48' E 002°42'0 0.0
2017-Aug-18 19:30N 39°48' E 002°42'0 0.0
2017-Aug-18 19:00N 39°48' E 002°42'0 0.0
2017-Aug-18 18:30N 39°48' E 002°42'0 0.0
2017-Aug-18 18:00N 39°48' E 002°42'0 0.0
2017-Aug-18 17:30N 39°48' E 002°42'0 0.0
2017-Aug-18 17:00N 39°48' E 002°42'0 0.0
2017-Aug-18 16:30N 39°48' E 002°42'0 0.0
2017-Aug-18 16:00N 39°48' E 002°42'0 0.0
2017-Aug-18 15:30N 39°48' E 002°42'0 0.0
2017-Aug-18 15:00N 39°48' E 002°42'0 0.0
2017-Aug-18 14:30N 39°48' E 002°42'0 0.0
2017-Aug-18 13:30N 39°48' E 002°42'0 0.0
2017-Aug-18 13:00N 39°48' E 002°42'0 0.0
2017-Aug-18 12:30N 39°48' E 002°42'0 0.0
2017-Aug-18 11:59N 39°48' E 002°42'0 0.0
2017-Aug-18 11:30N 39°48' E 002°42'0 0.0
2017-Aug-18 11:00N 39°48' E 002°42'0 0.0
2017-Aug-18 10:30N 39°48' E 002°42'0 0.0
2017-Aug-18 10:00N 39°48' E 002°42'0 0.0
2017-Aug-18 09:30N 39°48' E 002°42'0 0.0
2017-Aug-18 09:00N 39°48' E 002°42'0 0.0
2017-Aug-18 08:30N 39°48' E 002°42'0 0.0
2017-Aug-18 08:00N 39°48' E 002°42'0 0.0
2017-Aug-18 07:30N 39°48' E 002°42'0 0.0
2017-Aug-18 07:00N 39°48' E 002°42'0 0.0
2017-Aug-18 06:30N 39°48' E 002°42'0 0.0
2017-Aug-18 06:00N 39°48' E 002°42'0 0.0
2017-Aug-18 05:30N 39°48' E 002°42'0 0.0
2017-Aug-18 05:00N 39°48' E 002°42'0 0.0
2017-Aug-18 04:30N 39°48' E 002°42'0 0.0
2017-Aug-18 04:00N 39°48' E 002°42'0 0.0
2017-Aug-18 03:30N 39°48' E 002°42'0 0.0
2017-Aug-18 03:00N 39°48' E 002°42'0 0.0
2017-Aug-18 02:30N 39°48' E 002°42'0 0.0
2017-Aug-18 02:00N 39°48' E 002°42'0 0.0
2017-Aug-18 01:30N 39°48' E 002°42'0 0.0
2017-Aug-18 01:00N 39°48' E 002°42'0 0.0
2017-Aug-18 00:30N 39°48' E 002°42'0 0.0
2017-Aug-18 00:00N 39°48' E 002°42'0 0.0
2017-Aug-17 23:30N 39°48' E 002°42'0 0.0
2017-Aug-17 23:00N 39°48' E 002°42'0 0.0
2017-Aug-17 22:30N 39°48' E 002°42'0 0.0
2017-Aug-17 22:00N 39°48' E 002°42'0 0.0
2017-Aug-17 21:30N 39°48' E 002°42'2 1.4
2017-Aug-17 20:00N 39°50' E 002°41'5 9.8
2017-Aug-17 19:31N 39°54' E 002°39'5 9.7
2017-Aug-17 19:00N 39°59' E 002°38'5 9.8
2017-Aug-17 18:30N 40°04' E 002°36'510.0
2017-Aug-17 18:00N 40°09' E 002°35'510.0
2017-Aug-17 17:30N 40°14' E 002°33'5 9.9
2017-Aug-17 17:00N 40°19' E 002°32'5 9.8
2017-Aug-17 16:30N 40°23' E 002°30'5 9.7
2017-Aug-17 16:01N 40°28' E 002°29'5 9.7
2017-Aug-17 15:30N 40°33' E 002°28'5 9.9
2017-Aug-17 15:00N 40°38' E 002°26'5 9.9
2017-Aug-17 14:30N 40°43' E 002°25'510.0
2017-Aug-17 14:00N 40°47' E 002°23'510.0
2017-Aug-17 13:30N 40°52' E 002°22'510.0
2017-Aug-17 13:00N 40°57' E 002°20'15 2.1
2017-Aug-17 05:55N 41°10' E 002°10'4 7.7
2017-Aug-17 05:22N 41°06' E 002°09'3 7.8
2017-Aug-17 05:00N 41°03' E 002°08'4 8.4
2017-Aug-17 04:29N 40°59' E 002°06'5 9.3
2017-Aug-17 03:59N 40°55' E 002°04'5 9.3
2017-Aug-17 03:30N 40°51' E 002°02'5 9.4
2017-Aug-17 03:00N 40°46' E 002°00'5 9.5
2017-Aug-17 02:30N 40°42' E 001°58'5 9.4
2017-Aug-17 02:01N 40°37' E 001°56'5 9.3
2017-Aug-17 01:30N 40°33' E 001°54'5 9.3
2017-Aug-17 01:00N 40°28' E 001°52'5 9.2
2017-Aug-17 00:30N 40°24' E 001°51'5 9.1
2017-Aug-17 00:00N 40°20' E 001°49'4 8.9
2017-Aug-16 23:30N 40°15' E 001°47'5 9.1
2017-Aug-16 23:00N 40°11' E 001°45'5 9.1
2017-Aug-16 22:30N 40°07' E 001°43'5 9.2
2017-Aug-16 22:00N 40°02' E 001°42'5 9.4
2017-Aug-16 21:30N 39°58' E 001°40'510.5
2017-Aug-16 21:00N 39°53' E 001°38'610.8
2017-Aug-16 20:30N 39°48' E 001°36'2110.7
2017-Aug-16 18:34N 39°28' E 001°28'110.4
2017-Aug-16 18:29N 39°27' E 001°28'510.3
2017-Aug-16 18:00N 39°22' E 001°26'33 1.4
2017-Aug-15 19:20N 38°50' E 001°21'5 0.5
2017-Aug-15 09:40N 38°51' E 001°15'3 0.2
2017-Aug-14 17:13N 38°51' E 001°19'2 9.0
2017-Aug-14 17:00N 38°50' E 001°20'5 9.8
2017-Aug-14 16:30N 38°46' E 001°25'1 2.0
2017-Aug-14 15:47N 38°45' E 001°26'0 0.0
2017-Aug-14 15:30N 38°45' E 001°26'0 0.0
2017-Aug-14 15:00N 38°45' E 001°26'0 0.0
2017-Aug-14 14:30N 38°45' E 001°26'0 0.0
2017-Aug-14 13:57N 38°45' E 001°26'0 0.0
2017-Aug-14 10:36N 38°45' E 001°26'0 0.1
2017-Aug-14 10:10N 38°45' E 001°26'0 0.1
2017-Aug-14 09:59N 38°45' E 001°26'0 0.0
2017-Aug-14 08:54N 38°45' E 001°26'1 2.1
2017-Aug-14 08:13N 38°46' E 001°25'3 9.1
2017-Aug-14 07:54N 38°49' E 001°26'4 9.9
2017-Aug-14 07:30N 38°51' E 001°30'10 9.9
2017-Aug-14 06:32N 38°57' E 001°40'110.0
2017-Aug-14 06:25N 38°58' E 001°41'4 9.8
2017-Aug-14 06:00N 38°60' E 001°45'5 9.7
2017-Aug-14 05:29N 39°03' E 001°50'5 9.4
2017-Aug-14 05:00N 39°06' E 001°55'5 9.4
2017-Aug-14 04:30N 39°09' E 001°60'5 9.6
2017-Aug-14 04:00N 39°12' E 002°05'5 9.7
2017-Aug-14 03:30N 39°14' E 002°10'5 9.7
2017-Aug-14 03:00N 39°17' E 002°15'5 9.8
2017-Aug-14 02:30N 39°20' E 002°20'5 9.7
2017-Aug-14 02:00N 39°23' E 002°25'5 9.7
2017-Aug-14 01:30N 39°26' E 002°30'5 9.6
2017-Aug-14 01:00N 39°29' E 002°35'5 9.8
2017-Aug-14 00:30N 39°33' E 002°38'1 1.5
2017-Aug-14 00:00N 39°34' E 002°39'0 0.0
2017-Aug-13 23:30N 39°34' E 002°39'0 0.0
2017-Aug-13 23:00N 39°34' E 002°39'0 0.0
2017-Aug-13 22:30N 39°34' E 002°39'0 0.0
2017-Aug-13 22:00N 39°34' E 002°39'0 0.0
2017-Aug-13 21:30N 39°34' E 002°39'0 0.0
2017-Aug-13 21:01N 39°34' E 002°39'0 0.0
2017-Aug-13 20:30N 39°34' E 002°39'0 0.0
2017-Aug-13 20:00N 39°34' E 002°39'0 0.0
2017-Aug-13 19:30N 39°34' E 002°39'0 0.0
2017-Aug-13 19:00N 39°34' E 002°39'0 0.0
2017-Aug-13 18:30N 39°34' E 002°39'0 0.0
2017-Aug-13 18:00N 39°34' E 002°39'0 0.0
2017-Aug-13 17:30N 39°34' E 002°39'0 0.0
2017-Aug-13 17:00N 39°34' E 002°39'0 0.0
2017-Aug-13 16:30N 39°34' E 002°39'0 0.0
2017-Aug-13 16:00N 39°34' E 002°39'0 0.0
2017-Aug-13 15:30N 39°34' E 002°39'0 0.0
2017-Aug-13 15:00N 39°34' E 002°39'3 5.5
2017-Aug-13 14:30N 39°31' E 002°37'510.7
2017-Aug-13 14:00N 39°28' E 002°32'5 9.7
2017-Aug-13 13:30N 39°29' E 002°26'17 8.0
2017-Aug-13 11:20N 39°45' E 002°36'1 2.9
2017-Aug-13 10:55N 39°45' E 002°37'0 0.1
2017-Aug-13 10:30N 39°45' E 002°37'0 0.0
2017-Aug-13 09:54N 39°45' E 002°37'0 0.0
2017-Aug-13 09:23N 39°45' E 002°37'0 0.0
2017-Aug-13 08:51N 39°45' E 002°37'0 0.0
2017-Aug-13 08:27N 39°45' E 002°37'0 0.0
2017-Aug-13 07:57N 39°45' E 002°37'0 0.0
2017-Aug-13 07:27N 39°45' E 002°37'0 0.0
2017-Aug-12 18:33N 39°45' E 002°37'0 0.0
2017-Aug-12 18:30N 39°45' E 002°37'0 0.0
2017-Aug-12 18:00N 39°45' E 002°37'0 0.0
2017-Aug-12 17:23N 39°45' E 002°37'0 0.0
2017-Aug-12 16:54N 39°45' E 002°37'0 0.0
2017-Aug-12 16:10N 39°45' E 002°37'0 0.0
2017-Aug-12 15:36N 39°45' E 002°37'0 0.0
2017-Aug-12 15:23N 39°45' E 002°37'4 9.4
2017-Aug-12 15:00N 39°43' E 002°33'610.9
2017-Aug-12 14:27N 39°40' E 002°27'510.2
2017-Aug-12 13:58N 39°37' E 002°21'  
Track history (hours):
 
Tides and Currents Weather Stations Pressure Air Temp Water Temp Dewpoint Dewpoint Depression Visibility Wind Speed Wind Dir Waves Ship Positions

Christina G

Last reported at 2017-Aug-22 11:00 UTC. Time now 2017-Aug-22 11:15 UTC.
Position N 39°21' E 002°58'.

Length 33 m; draft 2.5 m.

MMSI: 319032100.

Date/timePositionNaut miles runAvg speedWind from/ knotsBaromVisibWave heightAir tempDewpointWater temp
2017-Aug-22 11:00N 39°21' E 002°58'0 0.0
2017-Aug-22 10:30N 39°21' E 002°58'0 0.0
2017-Aug-22 10:00N 39°21' E 002°58'0 0.0
2017-Aug-22 09:30N 39°21' E 002°58'0 0.0
2017-Aug-22 09:00N 39°21' E 002°58'0 0.0
2017-Aug-22 08:30N 39°21' E 002°58'0 0.0
2017-Aug-22 08:00N 39°21' E 002°58'0 0.0
2017-Aug-22 07:30N 39°21' E 002°58'0 0.0
2017-Aug-22 07:00N 39°21' E 002°58'0 0.0
2017-Aug-22 06:30N 39°21' E 002°58'0 0.0
2017-Aug-22 06:00N 39°21' E 002°58'0 0.0
2017-Aug-22 05:30N 39°21' E 002°58'0 0.0
2017-Aug-22 05:00N 39°21' E 002°58'0 0.0
2017-Aug-22 04:30N 39°21' E 002°58'0 0.0
2017-Aug-22 04:00N 39°21' E 002°58'0 0.0
2017-Aug-22 03:30N 39°21' E 002°58'0 0.0
2017-Aug-22 03:00N 39°21' E 002°58'0 0.0
2017-Aug-22 02:30N 39°21' E 002°58'0 0.0
2017-Aug-22 02:00N 39°21' E 002°58'0 0.0
2017-Aug-22 01:30N 39°21' E 002°58'0 0.0
2017-Aug-22 01:00N 39°21' E 002°58'0 0.0
2017-Aug-22 00:30N 39°21' E 002°58'0 0.0
2017-Aug-22 00:00N 39°21' E 002°58'0 0.0
2017-Aug-21 23:30N 39°21' E 002°58'0 0.0
2017-Aug-21 23:00N 39°21' E 002°58'0 0.0
2017-Aug-21 22:30N 39°21' E 002°58'0 0.0
2017-Aug-21 22:00N 39°21' E 002°58'0 0.0
2017-Aug-21 21:30N 39°21' E 002°58'0 0.1
2017-Aug-21 21:00N 39°21' E 002°58'0 0.0
2017-Aug-21 20:30N 39°21' E 002°58'0 0.1
2017-Aug-21 20:00N 39°21' E 002°58'5 9.3
2017-Aug-21 19:30N 39°21' E 002°52'510.4
2017-Aug-21 19:00N 39°22' E 002°46'510.9
2017-Aug-21 18:30N 39°24' E 002°39'510.9
2017-Aug-21 18:00N 39°26' E 002°33'510.6
2017-Aug-21 17:30N 39°29' E 002°27'4 7.3
2017-Aug-21 17:00N 39°32' E 002°24'0 0.0
2017-Aug-21 16:30N 39°32' E 002°24'0 0.0
2017-Aug-21 16:00N 39°32' E 002°24'0 0.0
2017-Aug-21 15:25N 39°32' E 002°24'0 0.0
2017-Aug-21 14:58N 39°32' E 002°24'0 0.0
2017-Aug-21 14:30N 39°32' E 002°24'0 0.0
2017-Aug-21 14:00N 39°32' E 002°24'0 0.1
2017-Aug-21 13:30N 39°32' E 002°24'5 0.3
2017-Aug-20 18:36N 39°37' E 002°22'8 9.9
2017-Aug-20 17:49N 39°42' E 002°30'4 9.9
2017-Aug-20 17:24N 39°44' E 002°35'2 6.0
2017-Aug-20 17:00N 39°45' E 002°37'0 0.0
2017-Aug-20 16:21N 39°45' E 002°37'0 0.0
2017-Aug-20 15:41N 39°45' E 002°37'0 0.1
2017-Aug-20 15:30N 39°45' E 002°37'0 0.0
2017-Aug-20 14:49N 39°45' E 002°37'0 0.0
2017-Aug-20 11:17N 39°45' E 002°37'2 7.2
2017-Aug-20 11:00N 39°47' E 002°39'2 2.2
2017-Aug-20 10:00N 39°48' E 002°42'0 0.0
2017-Aug-20 09:30N 39°48' E 002°42'0 0.0
2017-Aug-20 09:00N 39°48' E 002°42'0 0.0
2017-Aug-20 08:30N 39°48' E 002°42'0 0.0
2017-Aug-20 08:00N 39°48' E 002°42'0 0.0
2017-Aug-20 07:30N 39°48' E 002°42'0 0.0
2017-Aug-20 07:00N 39°48' E 002°42'0 0.0
2017-Aug-20 06:30N 39°48' E 002°42'0 0.0
2017-Aug-20 06:00N 39°48' E 002°42'0 0.0
2017-Aug-20 05:30N 39°48' E 002°42'0 0.0
2017-Aug-20 05:00N 39°48' E 002°42'0 0.0
2017-Aug-20 04:30N 39°48' E 002°42'0 0.0
2017-Aug-20 04:00N 39°48' E 002°42'0 0.0
2017-Aug-20 03:30N 39°48' E 002°42'0 0.0
2017-Aug-20 03:00N 39°48' E 002°42'0 0.0
2017-Aug-20 02:30N 39°48' E 002°42'0 0.0
2017-Aug-20 02:00N 39°48' E 002°42'0 0.0
2017-Aug-20 01:30N 39°48' E 002°42'0 0.0
2017-Aug-20 01:00N 39°48' E 002°42'0 0.0
2017-Aug-20 00:30N 39°48' E 002°42'0 0.0
2017-Aug-20 00:01N 39°48' E 002°42'0 0.0
2017-Aug-19 23:30N 39°48' E 002°42'0 0.0
2017-Aug-19 23:00N 39°48' E 002°42'0 0.0
2017-Aug-19 22:30N 39°48' E 002°42'0 0.0
2017-Aug-19 22:00N 39°48' E 002°42'0 0.0
2017-Aug-19 21:30N 39°48' E 002°42'0 0.0
2017-Aug-19 21:00N 39°48' E 002°42'0 0.0
2017-Aug-19 20:30N 39°48' E 002°42'0 0.0
2017-Aug-19 20:00N 39°48' E 002°42'0 0.0
2017-Aug-19 19:31N 39°48' E 002°42'0 0.0
2017-Aug-19 19:00N 39°48' E 002°42'0 0.0
2017-Aug-19 18:30N 39°48' E 002°42'0 0.0
2017-Aug-19 18:00N 39°48' E 002°42'0 0.0
2017-Aug-19 17:30N 39°48' E 002°42'0 0.0
2017-Aug-19 17:00N 39°48' E 002°42'0 0.0
2017-Aug-19 16:30N 39°48' E 002°42'0 0.0
2017-Aug-19 16:00N 39°48' E 002°42'0 0.0
2017-Aug-19 15:30N 39°48' E 002°42'0 0.0
2017-Aug-19 15:01N 39°48' E 002°42'0 0.0
2017-Aug-19 14:01N 39°48' E 002°42'0 0.0
2017-Aug-19 13:30N 39°48' E 002°42'0 0.0
2017-Aug-19 13:00N 39°48' E 002°42'0 0.0
2017-Aug-19 12:30N 39°48' E 002°42'0 0.0
2017-Aug-19 12:00N 39°48' E 002°42'0 0.0
2017-Aug-19 11:30N 39°48' E 002°42'0 0.0
2017-Aug-19 11:00N 39°48' E 002°42'0 0.0
2017-Aug-19 10:30N 39°48' E 002°42'0 0.0
2017-Aug-19 10:00N 39°48' E 002°42'0 0.0
2017-Aug-19 09:30N 39°48' E 002°42'0 0.0
2017-Aug-19 09:00N 39°48' E 002°42'0 0.0
2017-Aug-19 08:31N 39°48' E 002°42'0 0.0
2017-Aug-19 08:00N 39°48' E 002°42'0 0.0
2017-Aug-19 07:30N 39°48' E 002°42'0 0.0
2017-Aug-19 07:00N 39°48' E 002°42'0 0.0
2017-Aug-19 06:30N 39°48' E 002°42'0 0.0
2017-Aug-19 06:00N 39°48' E 002°42'0 0.0
2017-Aug-19 05:30N 39°48' E 002°42'0 0.0
2017-Aug-19 05:00N 39°48' E 002°42'0 0.0
2017-Aug-19 04:30N 39°48' E 002°42'0 0.0
2017-Aug-19 04:00N 39°48' E 002°42'0 0.0
2017-Aug-19 03:30N 39°48' E 002°42'0 0.0
2017-Aug-19 03:00N 39°48' E 002°42'0 0.0
2017-Aug-19 02:30N 39°48' E 002°42'0 0.0
2017-Aug-19 02:00N 39°48' E 002°42'0 0.0
2017-Aug-19 01:30N 39°48' E 002°42'0 0.0
2017-Aug-19 01:00N 39°48' E 002°42'0 0.0
2017-Aug-19 00:30N 39°48' E 002°42'0 0.0
2017-Aug-19 00:00N 39°48' E 002°42'0 0.0
2017-Aug-18 23:30N 39°48' E 002°42'0 0.0
2017-Aug-18 23:00N 39°48' E 002°42'0 0.0
2017-Aug-18 22:30N 39°48' E 002°42'0 0.0
2017-Aug-18 22:00N 39°48' E 002°42'0 0.0
2017-Aug-18 21:30N 39°48' E 002°42'0 0.0
2017-Aug-18 21:00N 39°48' E 002°42'0 0.0
2017-Aug-18 20:30N 39°48' E 002°42'0 0.0
2017-Aug-18 20:00N 39°48' E 002°42'0 0.0
2017-Aug-18 19:30N 39°48' E 002°42'0 0.0
2017-Aug-18 19:00N 39°48' E 002°42'0 0.0
2017-Aug-18 18:30N 39°48' E 002°42'0 0.0
2017-Aug-18 18:00N 39°48' E 002°42'0 0.0
2017-Aug-18 17:30N 39°48' E 002°42'0 0.0
2017-Aug-18 17:00N 39°48' E 002°42'0 0.0
2017-Aug-18 16:30N 39°48' E 002°42'0 0.0
2017-Aug-18 16:00N 39°48' E 002°42'0 0.0
2017-Aug-18 15:30N 39°48' E 002°42'0 0.0
2017-Aug-18 15:00N 39°48' E 002°42'0 0.0
2017-Aug-18 14:30N 39°48' E 002°42'0 0.0
2017-Aug-18 13:30N 39°48' E 002°42'0 0.0
2017-Aug-18 13:00N 39°48' E 002°42'0 0.0
2017-Aug-18 12:30N 39°48' E 002°42'0 0.0
2017-Aug-18 11:59N 39°48' E 002°42'0 0.0
2017-Aug-18 11:30N 39°48' E 002°42'0 0.0
2017-Aug-18 11:00N 39°48' E 002°42'0 0.0
2017-Aug-18 10:30N 39°48' E 002°42'0 0.0
2017-Aug-18 10:00N 39°48' E 002°42'0 0.0
2017-Aug-18 09:30N 39°48' E 002°42'0 0.0
2017-Aug-18 09:00N 39°48' E 002°42'0 0.0
2017-Aug-18 08:30N 39°48' E 002°42'0 0.0
2017-Aug-18 08:00N 39°48' E 002°42'0 0.0
2017-Aug-18 07:30N 39°48' E 002°42'0 0.0
2017-Aug-18 07:00N 39°48' E 002°42'0 0.0
2017-Aug-18 06:30N 39°48' E 002°42'0 0.0
2017-Aug-18 06:00N 39°48' E 002°42'0 0.0
2017-Aug-18 05:30N 39°48' E 002°42'0 0.0
2017-Aug-18 05:00N 39°48' E 002°42'0 0.0
2017-Aug-18 04:30N 39°48' E 002°42'0 0.0
2017-Aug-18 04:00N 39°48' E 002°42'0 0.0
2017-Aug-18 03:30N 39°48' E 002°42'0 0.0
2017-Aug-18 03:00N 39°48' E 002°42'0 0.0
2017-Aug-18 02:30N 39°48' E 002°42'0 0.0
2017-Aug-18 02:00N 39°48' E 002°42'0 0.0
2017-Aug-18 01:30N 39°48' E 002°42'0 0.0
2017-Aug-18 01:00N 39°48' E 002°42'0 0.0
2017-Aug-18 00:30N 39°48' E 002°42'0 0.0
2017-Aug-18 00:00N 39°48' E 002°42'0 0.0
2017-Aug-17 23:30N 39°48' E 002°42'0 0.0
2017-Aug-17 23:00N 39°48' E 002°42'0 0.0
2017-Aug-17 22:30N 39°48' E 002°42'0 0.0
2017-Aug-17 22:00N 39°48' E 002°42'0 0.0
2017-Aug-17 21:30N 39°48' E 002°42'2 1.4
2017-Aug-17 20:00N 39°50' E 002°41'5 9.8
2017-Aug-17 19:31N 39°54' E 002°39'5 9.7
2017-Aug-17 19:00N 39°59' E 002°38'5 9.8
2017-Aug-17 18:30N 40°04' E 002°36'510.0
2017-Aug-17 18:00N 40°09' E 002°35'510.0
2017-Aug-17 17:30N 40°14' E 002°33'5 9.9
2017-Aug-17 17:00N 40°19' E 002°32'5 9.8
2017-Aug-17 16:30N 40°23' E 002°30'5 9.7
2017-Aug-17 16:01N 40°28' E 002°29'5 9.7
2017-Aug-17 15:30N 40°33' E 002°28'5 9.9
2017-Aug-17 15:00N 40°38' E 002°26'5 9.9
2017-Aug-17 14:30N 40°43' E 002°25'510.0
2017-Aug-17 14:00N 40°47' E 002°23'510.0
2017-Aug-17 13:30N 40°52' E 002°22'510.0
2017-Aug-17 13:00N 40°57' E 002°20'15 2.1
2017-Aug-17 05:55N 41°10' E 002°10'4 7.7
2017-Aug-17 05:22N 41°06' E 002°09'3 7.8
2017-Aug-17 05:00N 41°03' E 002°08'4 8.4
2017-Aug-17 04:29N 40°59' E 002°06'5 9.3
2017-Aug-17 03:59N 40°55' E 002°04'5 9.3
2017-Aug-17 03:30N 40°51' E 002°02'5 9.4
2017-Aug-17 03:00N 40°46' E 002°00'5 9.5
2017-Aug-17 02:30N 40°42' E 001°58'5 9.4
2017-Aug-17 02:01N 40°37' E 001°56'5 9.3
2017-Aug-17 01:30N 40°33' E 001°54'5 9.3
2017-Aug-17 01:00N 40°28' E 001°52'5 9.2
2017-Aug-17 00:30N 40°24' E 001°51'5 9.1
2017-Aug-17 00:00N 40°20' E 001°49'4 8.9
2017-Aug-16 23:30N 40°15' E 001°47'5 9.1
2017-Aug-16 23:00N 40°11' E 001°45'5 9.1
2017-Aug-16 22:30N 40°07' E 001°43'5 9.2
2017-Aug-16 22:00N 40°02' E 001°42'5 9.4
2017-Aug-16 21:30N 39°58' E 001°40'510.5
2017-Aug-16 21:00N 39°53' E 001°38'610.8
2017-Aug-16 20:30N 39°48' E 001°36'2110.7
2017-Aug-16 18:34N 39°28' E 001°28'110.4
2017-Aug-16 18:29N 39°27' E 001°28'510.3
2017-Aug-16 18:00N 39°22' E 001°26'33 1.4
2017-Aug-15 19:20N 38°50' E 001°21'5 0.5
2017-Aug-15 09:40N 38°51' E 001°15'3 0.2
2017-Aug-14 17:13N 38°51' E 001°19'2 9.0
2017-Aug-14 17:00N 38°50' E 001°20'5 9.8
2017-Aug-14 16:30N 38°46' E 001°25'1 2.0
2017-Aug-14 15:47N 38°45' E 001°26'0 0.0
2017-Aug-14 15:30N 38°45' E 001°26'0 0.0
2017-Aug-14 15:00N 38°45' E 001°26'0 0.0
2017-Aug-14 14:30N 38°45' E 001°26'0 0.0
2017-Aug-14 13:57N 38°45' E 001°26'0 0.0
2017-Aug-14 10:36N 38°45' E 001°26'0 0.1
2017-Aug-14 10:10N 38°45' E 001°26'0 0.1
2017-Aug-14 09:59N 38°45' E 001°26'0 0.0
2017-Aug-14 08:54N 38°45' E 001°26'1 2.1
2017-Aug-14 08:13N 38°46' E 001°25'3 9.1
2017-Aug-14 07:54N 38°49' E 001°26'4 9.9
2017-Aug-14 07:30N 38°51' E 001°30'10 9.9
2017-Aug-14 06:32N 38°57' E 001°40'110.0
2017-Aug-14 06:25N 38°58' E 001°41'4 9.8
2017-Aug-14 06:00N 38°60' E 001°45'5 9.7
2017-Aug-14 05:29N 39°03' E 001°50'5 9.4
2017-Aug-14 05:00N 39°06' E 001°55'5 9.4
2017-Aug-14 04:30N 39°09' E 001°60'5 9.6
2017-Aug-14 04:00N 39°12' E 002°05'5 9.7
2017-Aug-14 03:30N 39°14' E 002°10'5 9.7
2017-Aug-14 03:00N 39°17' E 002°15'5 9.8
2017-Aug-14 02:30N 39°20' E 002°20'5 9.7
2017-Aug-14 02:00N 39°23' E 002°25'5 9.7
2017-Aug-14 01:30N 39°26' E 002°30'5 9.6
2017-Aug-14 01:00N 39°29' E 002°35'5 9.8
2017-Aug-14 00:30N 39°33' E 002°38'1 1.5
2017-Aug-14 00:00N 39°34' E 002°39'0 0.0
2017-Aug-13 23:30N 39°34' E 002°39'0 0.0
2017-Aug-13 23:00N 39°34' E 002°39'0 0.0
2017-Aug-13 22:30N 39°34' E 002°39'0 0.0
2017-Aug-13 22:00N 39°34' E 002°39'0 0.0
2017-Aug-13 21:30N 39°34' E 002°39'0 0.0
2017-Aug-13 21:01N 39°34' E 002°39'0 0.0
2017-Aug-13 20:30N 39°34' E 002°39'0 0.0
2017-Aug-13 20:00N 39°34' E 002°39'0 0.0
2017-Aug-13 19:30N 39°34' E 002°39'0 0.0
2017-Aug-13 19:00N 39°34' E 002°39'0 0.0
2017-Aug-13 18:30N 39°34' E 002°39'0 0.0
2017-Aug-13 18:00N 39°34' E 002°39'0 0.0
2017-Aug-13 17:30N 39°34' E 002°39'0 0.0
2017-Aug-13 17:00N 39°34' E 002°39'0 0.0
2017-Aug-13 16:30N 39°34' E 002°39'0 0.0
2017-Aug-13 16:00N 39°34' E 002°39'0 0.0
2017-Aug-13 15:30N 39°34' E 002°39'0 0.0
2017-Aug-13 15:00N 39°34' E 002°39'3 5.5
2017-Aug-13 14:30N 39°31' E 002°37'510.7
2017-Aug-13 14:00N 39°28' E 002°32'5 9.7
2017-Aug-13 13:30N 39°29' E 002°26'17 8.0
2017-Aug-13 11:20N 39°45' E 002°36'1 2.9
2017-Aug-13 10:55N 39°45' E 002°37'0 0.1
2017-Aug-13 10:30N 39°45' E 002°37'0 0.0
2017-Aug-13 09:54N 39°45' E 002°37'0 0.0
2017-Aug-13 09:23N 39°45' E 002°37'0 0.0
2017-Aug-13 08:51N 39°45' E 002°37'0 0.0
2017-Aug-13 08:27N 39°45' E 002°37'0 0.0
2017-Aug-13 07:57N 39°45' E 002°37'0 0.0
2017-Aug-13 07:27N 39°45' E 002°37'0 0.0
2017-Aug-12 18:33N 39°45' E 002°37'0 0.0
2017-Aug-12 18:30N 39°45' E 002°37'0 0.0
2017-Aug-12 18:00N 39°45' E 002°37'0 0.0
2017-Aug-12 17:23N 39°45' E 002°37'0 0.0
2017-Aug-12 16:54N 39°45' E 002°37'0 0.0
2017-Aug-12 16:10N 39°45' E 002°37'0 0.0
2017-Aug-12 15:36N 39°45' E 002°37'0 0.0
2017-Aug-12 15:23N 39°45' E 002°37'4 9.4
2017-Aug-12 15:00N 39°43' E 002°33'610.9
2017-Aug-12 14:27N 39°40' E 002°27'510.2
2017-Aug-12 13:58N 39°37' E 002°21'  

Dump ship's entire track history